Time;durP1;ratioP1;P1;durP2;ratioP2;P2;SDS_P1;SDS_P2;PMS_P1;PMS_P2;Temp;Humidity;BMP_temperature;BMP_pressure;BME280_temperature;BME280_humidity;BME280_pressure;Samples;Min_cycle;Max_cycle;Signal;HPM_P1;HPM_P2
2022/08/03 00:00:25;;;;;;;3.78;3.30;;;;;;;19.63;63.58;98345.59;4992758;28;20592;-75
2022/08/03 00:02:52;;;;;;;4.28;3.20;;;;;;;19.58;63.31;98345.41;4991040;28;20050;-73
2022/08/03 00:05:18;;;;;;;3.53;3.22;;;;;;;19.52;64.48;98348.94;4991390;28;20054;-75
2022/08/03 00:07:45;;;;;;;4.68;3.60;;;;;;;19.45;65.14;98346.28;4992887;28;20042;-75
2022/08/03 00:10:15;;;;;;;3.35;3.03;;;;;;;19.43;64.73;98339.50;4991211;28;20054;-74
2022/08/03 00:12:42;;;;;;;3.65;3.25;;;;;;;19.45;63.63;98342.78;4992711;28;20046;-74
2022/08/03 00:15:09;;;;;;;6.75;3.63;;;;;;;19.40;64.41;98334.56;4991430;28;20065;-74
2022/08/03 00:17:41;;;;;;;4.05;3.33;;;;;;;19.35;64.53;98339.72;4991293;28;20373;-74
2022/08/03 00:20:20;;;;;;;3.25;2.97;;;;;;;19.37;64.09;98338.50;4993652;28;20042;-74
2022/08/03 00:22:46;;;;;;;8.65;3.05;;;;;;;19.36;64.58;98336.03;4990989;28;20043;-73
2022/08/03 00:25:13;;;;;;;4.15;3.75;;;;;;;19.34;64.29;98338.09;4990168;28;20117;-74
2022/08/03 00:27:40;;;;;;;7.72;3.45;;;;;;;19.30;64.49;98343.06;4995878;28;20057;-74
2022/08/03 00:30:07;;;;;;;4.20;3.75;;;;;;;19.36;64.50;98336.03;4992379;28;20061;-73
2022/08/03 00:32:33;;;;;;;4.72;3.20;;;;;;;19.30;64.29;98335.03;4990578;28;20042;-74
2022/08/03 00:35:00;;;;;;;9.63;3.03;;;;;;;19.26;65.42;98337.28;4996426;28;20050;-74
2022/08/03 00:37:34;;;;;;;6.13;3.22;;;;;;;19.24;64.76;98327.81;4990706;28;20493;-73
2022/08/03 00:40:09;;;;;;;3.83;3.47;;;;;;;19.21;64.85;98330.94;4989893;28;20065;-72
2022/08/03 00:42:46;;;;;;;4.50;3.17;;;;;;;19.19;64.67;98330.31;4991882;28;20594;-72
2022/08/03 00:45:13;;;;;;;3.45;3.15;;;;;;;19.12;65.37;98335.72;4990698;28;20238;-74
2022/08/03 00:47:39;;;;;;;4.43;3.30;;;;;;;19.08;66.54;98327.25;4990147;28;20046;-73
2022/08/03 00:50:06;;;;;;;4.45;3.85;;;;;;;19.08;65.96;98329.94;4991768;28;20050;-74
2022/08/03 00:52:34;;;;;;;3.53;3.22;;;;;;;19.03;65.94;98324.38;4990892;28;20038;-71
2022/08/03 00:55:02;;;;;;;3.65;3.17;;;;;;;19.04;66.35;98331.41;4992313;28;20057;-74
2022/08/03 00:57:32;;;;;;;3.60;3.30;;;;;;;19.03;66.05;98328.91;4994211;28;20064;-73
2022/08/03 00:59:59;;;;;;;5.72;3.42;;;;;;;18.98;65.61;98320.69;4989091;28;20050;-72
2022/08/03 01:02:27;;;;;;;4.68;3.10;;;;;;;18.98;65.57;98328.72;4989723;28;20101;-72
2022/08/03 01:04:55;;;;;;;7.75;3.08;;;;;;;19.07;64.69;98324.78;4992470;28;20054;-73
2022/08/03 01:07:44;;;;;;;3.58;3.28;;;;;;;19.05;65.28;98327.69;4986259;28;20049;-74
2022/08/03 01:10:38;;;;;;;4.25;3.53;;;;;;;19.05;64.93;98327.69;4990583;28;20069;-73
2022/08/03 01:13:20;;;;;;;4.88;3.70;;;;;;;18.85;65.91;98329.59;5003653;28;20113;-72
2022/08/03 01:16:08;;;;;;;3.97;3.53;;;;;;;18.89;65.39;98316.59;4992274;28;20081;-74
2022/08/03 01:18:44;;;;;;;3.95;3.55;;;;;;;18.81;66.40;98317.66;4987467;28;20050;-74
2022/08/03 01:21:23;;;;;;;4.90;3.38;;;;;;;18.74;66.27;98317.63;4990368;28;20053;-74
2022/08/03 01:24:04;;;;;;;4.03;3.60;;;;;;;18.72;66.24;98310.81;4989638;28;20046;-74
2022/08/03 01:27:03;;;;;;;4.85;3.42;;;;;;;18.68;66.53;98321.16;4990073;28;20065;-72
2022/08/03 01:29:52;;;;;;;4.25;3.42;;;;;;;18.71;66.23;98309.19;4989987;28;20041;-74
2022/08/03 01:32:21;;;;;;;5.53;3.50;;;;;;;18.80;65.44;98316.84;4992796;28;20408;-72
2022/08/03 01:35:24;;;;;;;5.97;3.70;;;;;;;18.78;66.53;98307.34;5001473;28;20065;-74
2022/08/03 01:37:56;;;;;;;4.80;3.63;;;;;;;18.76;66.92;98306.72;4990328;28;20077;-74
2022/08/03 01:40:24;;;;;;;5.55;3.95;;;;;;;18.70;67.39;98307.56;5006839;28;20077;-74
2022/08/03 01:42:53;;;;;;;3.55;3.25;;;;;;;18.68;67.47;98306.94;4989340;28;20409;-73
2022/08/03 01:45:21;;;;;;;4.97;3.65;;;;;;;18.64;66.58;98309.19;4991636;28;20046;-73
2022/08/03 01:47:48;;;;;;;3.85;3.42;;;;;;;18.62;67.23;98305.91;4991697;28;20038;-74
2022/08/03 01:50:18;;;;;;;4.30;3.20;;;;;;;18.55;66.69;98300.56;4986439;28;20577;-74
2022/08/03 01:52:46;;;;;;;4.28;3.95;;;;;;;18.52;67.12;98298.28;5004859;28;20042;-74
2022/08/03 01:55:16;;;;;;;4.05;3.75;;;;;;;18.49;68.02;98303.25;4989444;28;20061;-73
2022/08/03 01:57:44;;;;;;;6.10;2.97;;;;;;;18.48;67.61;98294.38;5002376;28;20049;-74
2022/08/03 02:00:31;;;;;;;3.47;3.17;;;;;;;18.53;67.96;98297.25;4991146;28;20108;-74
2022/08/03 02:02:58;;;;;;;4.68;3.10;;;;;;;18.55;67.44;98292.50;4990467;28;20504;-74
2022/08/03 02:05:25;;;;;;;3.50;3.20;;;;;;;18.56;67.55;98294.19;4990711;28;20047;-73
2022/08/03 02:07:53;;;;;;;5.25;3.28;;;;;;;18.57;67.50;98289.63;4990668;28;20444;-74
2022/08/03 02:10:20;;;;;;;3.45;2.88;;;;;;;18.58;67.13;98293.97;4988566;28;20168;-74
2022/08/03 02:13:03;;;;;;;5.50;3.70;;;;;;;18.59;67.22;98295.63;4993303;28;20049;-74
2022/08/03 02:15:31;;;;;;;3.92;3.40;;;;;;;18.62;67.12;98292.50;5004635;28;20106;-75
2022/08/03 02:17:59;;;;;;;6.38;3.60;;;;;;;18.55;66.49;98289.03;4988495;28;20046;-73
2022/08/03 02:20:26;;;;;;;6.97;3.40;;;;;;;18.53;66.64;98291.06;4987245;28;20666;-75
2022/08/03 02:22:53;;;;;;;3.60;3.20;;;;;;;18.50;67.46;98295.00;4987389;28;20054;-75
2022/08/03 02:25:19;;;;;;;9.02;4.00;;;;;;;18.44;66.97;98293.16;4988798;28;20038;-74
2022/08/03 02:27:54;;;;;;;5.80;3.38;;;;;;;18.35;67.56;98297.91;4988788;28;20042;-75
2022/08/03 02:30:20;;;;;;;;;;;;;;;18.28;67.13;98294.41;4992688;28;20060;-75
2022/08/03 02:32:51;;;;;;;4.03;3.17;;;;;;;18.25;67.24;98294.84;5019496;28;19922;-75
2022/08/03 02:35:20;;;;;;;3.15;2.95;;;;;;;18.19;67.75;98292.97;4990940;28;21592;-75
2022/08/03 02:37:50;;;;;;;4.43;3.78;;;;;;;18.10;68.13;98299.56;4987901;28;20061;-75
2022/08/03 02:40:18;;;;;;;4.70;3.67;;;;;;;18.07;68.98;98302.66;4986161;28;20042;-75
2022/08/03 02:42:46;;;;;;;4.90;3.38;;;;;;;18.06;69.26;98306.34;5001746;28;20050;-76
2022/08/03 02:45:14;;;;;;;3.80;3.30;;;;;;;18.07;69.34;98300.81;4989260;28;20065;-74
2022/08/03 02:47:41;;;;;;;4.22;3.50;;;;;;;18.09;69.25;98298.75;4985437;28;20278;-75
2022/08/03 02:50:21;;;;;;;6.53;3.40;;;;;;;18.10;69.00;98291.53;4989580;28;20049;-74
2022/08/03 02:52:48;;;;;;;4.45;3.63;;;;;;;18.11;68.81;98288.63;5003139;28;20035;-75
2022/08/03 02:55:16;;;;;;;4.70;4.18;;;;;;;18.07;68.41;98297.31;4988747;28;20120;-75
2022/08/03 02:57:43;;;;;;;5.47;3.58;;;;;;;18.02;68.85;98295.25;4990804;28;22327;-74
2022/08/03 03:00:11;;;;;;;4.97;3.70;;;;;;;17.97;69.06;98293.16;4991760;28;20452;-75
2022/08/03 03:02:45;;;;;;;7.97;3.85;;;;;;;17.96;69.48;98294.22;4986176;28;20397;-74
2022/08/03 03:05:12;;;;;;;3.67;3.38;;;;;;;17.91;69.42;98296.66;4991229;28;20054;-74
2022/08/03 03:07:59;;;;;;;5.25;4.10;;;;;;;17.88;69.23;98294.41;5003954;28;20042;-74
2022/08/03 03:10:26;;;;;;;3.90;3.60;;;;;;;17.84;69.38;98295.00;5001469;28;20516;-74
2022/08/03 03:12:56;;;;;;;5.85;3.47;;;;;;;17.81;69.39;98293.56;4988565;28;20046;-75
2022/08/03 03:15:35;;;;;;;4.55;3.95;;;;;;;17.80;69.98;98293.75;5003511;28;20548;-74
2022/08/03 03:18:08;;;;;;;4.15;3.60;;;;;;;17.73;69.59;98293.75;4989617;28;20265;-74
2022/08/03 03:20:36;;;;;;;4.63;4.22;;;;;;;17.68;70.20;98293.53;4985685;28;20057;-74
2022/08/03 03:23:04;;;;;;;6.70;3.85;;;;;;;17.63;70.27;98286.09;4986110;28;20509;-75
2022/08/03 03:25:32;;;;;;;3.85;3.38;;;;;;;17.62;70.84;98286.31;4987526;28;20416;-75
2022/08/03 03:27:59;;;;;;;4.05;3.65;;;;;;;17.60;70.80;98281.16;5003082;28;20133;-75
2022/08/03 03:30:27;;;;;;;8.35;3.67;;;;;;;17.57;70.88;98286.09;4985839;28;20057;-76
2022/08/03 03:32:54;;;;;;;4.07;3.67;;;;;;;17.60;70.49;98285.69;4985756;28;20049;-75
2022/08/03 03:35:20;;;;;;;4.30;3.97;;;;;;;17.61;70.03;98288.16;4990755;28;20050;-75
2022/08/03 03:37:47;;;;;;;3.85;3.55;;;;;;;17.59;70.80;98292.03;4991586;28;20049;-76
2022/08/03 03:40:14;;;;;;;4.05;3.45;;;;;;;17.54;70.77;98288.16;4990703;28;20050;-75
2022/08/03 03:42:41;;;;;;;5.82;4.05;;;;;;;17.51;71.17;98293.09;4994156;28;20137;-75
2022/08/03 03:45:08;;;;;;;5.78;3.90;;;;;;;17.46;70.96;98282.97;5007977;28;20057;-74
2022/08/03 03:47:35;;;;;;;5.60;4.63;;;;;;;17.46;71.38;98284.84;4991632;28;20046;-75
2022/08/03 03:50:03;;;;;;;6.82;4.10;;;;;;;17.47;70.93;98289.97;4988302;28;21020;-75
2022/08/03 03:52:31;;;;;;;5.35;3.75;;;;;;;17.45;71.31;98283.19;4990079;28;20046;-75
2022/08/03 03:54:58;;;;;;;4.82;3.80;;;;;;;17.40;71.58;98282.94;4992910;28;20042;-74
2022/08/03 03:57:28;;;;;;;4.28;3.88;;;;;;;17.34;71.90;98285.41;4994866;28;20034;-75
2022/08/03 03:59:54;;;;;;;4.78;3.85;;;;;;;17.34;71.76;98279.25;4992952;28;20127;-74
2022/08/03 04:02:21;;;;;;;7.70;4.50;;;;;;;17.37;71.40;98281.50;4994014;28;20054;-74
2022/08/03 04:13:12;;;;;;;6.45;4.28;;;;;;;17.41;71.33;98289.97;4995571;28;20050;-74
2022/08/03 04:15:40;;;;;;;5.63;3.67;;;;;;;17.43;72.08;98288.75;4992228;28;20046;-75
2022/08/03 04:18:12;;;;;;;5.13;3.55;;;;;;;17.41;71.71;98285.44;4990807;28;20038;-74
2022/08/03 04:20:39;;;;;;;;;;;;;;;17.45;71.55;98296.53;4988535;28;20524;-75
2022/08/03 04:23:06;;;;;;;4.18;3.72;;;;;;;17.49;71.34;98295.13;4989105;28;19930;-74
2022/08/03 04:25:42;;;;;;;5.97;4.15;;;;;;;17.51;70.82;98293.91;4988442;28;20592;-74
2022/08/03 04:28:08;;;;;;;7.43;4.07;;;;;;;17.46;71.26;98291.00;5008106;28;20413;-74
2022/08/03 04:30:55;;;;;;;4.68;4.28;;;;;;;17.50;71.29;98292.25;4990996;28;20652;-74
2022/08/03 04:33:25;;;;;;;4.63;4.22;;;;;;;17.54;72.08;98295.34;4988489;28;20416;-74
2022/08/03 04:35:57;;;;;;;8.32;3.95;;;;;;;17.63;70.96;98295.97;4993059;28;20042;-75
2022/08/03 04:38:36;;;;;;;5.07;3.60;;;;;;;17.76;70.31;98296.81;4988646;28;20054;-75
2022/08/03 04:41:03;;;;;;;4.50;4.10;;;;;;;17.84;69.86;98303.88;4989134;28;20501;-75
2022/08/03 04:43:32;;;;;;;7.35;4.03;;;;;;;17.85;69.82;98305.53;4990262;28;20508;-75
2022/08/03 04:45:59;;;;;;;4.35;3.92;;;;;;;17.84;69.95;98309.22;4991090;28;20050;-75
2022/08/03 04:48:26;;;;;;;5.47;3.70;;;;;;;17.83;70.00;98318.28;4988319;28;20800;-75
2022/08/03 04:50:53;;;;;;;5.35;4.45;;;;;;;17.80;70.36;98313.34;4995975;28;20046;-75
2022/08/03 04:53:20;;;;;;;7.88;4.07;;;;;;;17.96;70.13;98318.28;4988984;28;20047;-74
2022/08/03 04:55:47;;;;;;;4.65;3.60;;;;;;;17.92;69.42;98318.91;4992347;28;20451;-74
2022/08/03 04:58:13;;;;;;;6.15;3.92;;;;;;;17.85;69.89;98316.22;4990584;28;20045;-75
2022/08/03 05:00:41;;;;;;;4.57;3.65;;;;;;;17.80;70.10;98318.69;4988939;28;20068;-75
2022/08/03 05:03:07;;;;;;;4.22;3.80;;;;;;;17.88;70.46;98318.50;4991208;28;20050;-76
2022/08/03 05:05:50;;;;;;;4.67;3.83;;;;;;;17.89;69.53;98320.13;4988965;28;20055;-74
2022/08/03 05:08:16;;;;;;;4.63;4.20;;;;;;;17.89;69.24;98313.97;4991304;28;20285;-75
2022/08/03 05:10:46;;;;;;;4.93;3.85;;;;;;;17.95;69.36;98313.13;4988773;28;20453;-74
2022/08/03 05:13:13;;;;;;;4.60;4.20;;;;;;;17.93;69.63;98321.38;4988570;28;20137;-75
2022/08/03 05:15:40;;;;;;;6.07;4.25;;;;;;;17.95;70.08;98324.66;4987447;28;20054;-75
2022/08/03 05:18:08;;;;;;;6.30;4.30;;;;;;;17.97;69.41;98324.47;4996226;28;20084;-76
2022/08/03 05:20:39;;;;;;;5.95;3.97;;;;;;;18.04;69.75;98319.13;4989612;28;20065;-75
2022/08/03 05:23:06;;;;;;;5.43;3.85;;;;;;;18.07;69.77;98330.25;4990467;28;20258;-75
2022/08/03 05:25:33;;;;;;;5.47;4.18;;;;;;;18.19;69.47;98327.78;4991810;28;20069;-74
2022/08/03 05:28:00;;;;;;;4.20;3.55;;;;;;;18.24;68.70;98336.00;4990241;28;20058;-75
2022/08/03 05:30:27;;;;;;;4.93;4.40;;;;;;;18.28;68.63;98331.09;4987859;28;20150;-75
2022/08/03 05:33:00;;;;;;;4.95;3.95;;;;;;;18.34;69.56;98327.56;4989434;28;20070;-75
2022/08/03 05:35:27;;;;;;;9.45;3.83;;;;;;;18.42;69.19;98322.81;4987405;28;20408;-74
2022/08/03 05:38:14;;;;;;;4.15;3.75;;;;;;;18.55;69.75;98326.53;4991887;28;20483;-75
2022/08/03 05:40:54;;;;;;;4.20;3.80;;;;;;;18.67;69.58;98329.38;4989219;28;20050;-75
2022/08/03 05:43:40;;;;;;;4.63;3.90;;;;;;;18.80;69.01;98324.03;4990194;28;20046;-75
2022/08/03 05:46:07;;;;;;;4.38;3.92;;;;;;;18.85;69.00;98332.25;4990178;28;20058;-75
2022/08/03 05:48:39;;;;;;;4.07;3.67;;;;;;;18.94;69.30;98331.03;4990258;28;20065;-74
2022/08/03 05:51:09;;;;;;;3.90;3.53;;;;;;;19.06;69.16;98328.50;4987752;28;20045;-73
2022/08/03 05:53:37;;;;;;;4.80;4.30;;;;;;;19.17;67.09;98324.31;4987948;28;20050;-73
2022/08/03 05:56:04;;;;;;;7.07;4.10;;;;;;;19.13;67.08;98323.13;4990441;28;20085;-74
2022/08/03 05:58:45;;;;;;;4.53;4.05;;;;;;;19.23;67.67;98326.19;4987816;28;20062;-73
2022/08/03 06:01:13;;;;;;;3.92;3.47;;;;;;;19.45;67.18;98327.50;4991676;28;20044;-74
2022/08/03 06:03:40;;;;;;;4.75;3.45;;;;;;;19.50;66.74;98322.31;4989924;28;20632;-73
2022/08/03 06:06:07;;;;;;;3.10;2.80;;;;;;;19.52;67.49;98320.25;4991336;28;20063;-73
2022/08/03 06:08:34;;;;;;;5.10;3.20;;;;;;;19.68;66.79;98321.66;5000199;28;20059;-73
2022/08/03 06:11:00;;;;;;;3.35;3.05;;;;;;;19.78;67.11;98320.38;4991710;28;20050;-73
2022/08/03 06:13:27;;;;;;;3.78;3.10;;;;;;;19.84;66.98;98330.22;4990929;28;20568;-74
2022/08/03 06:15:53;;;;;;;3.58;3.28;;;;;;;19.93;66.90;98328.91;4989010;28;20042;-73
2022/08/03 06:18:20;;;;;;;5.88;3.28;;;;;;;20.11;66.30;98326.31;4988484;28;20047;-73
2022/08/03 06:20:47;;;;;;;3.55;3.10;;;;;;;20.24;65.49;98328.06;4992221;28;20625;-73
2022/08/03 06:23:15;;;;;;;3.90;3.50;;;;;;;20.41;64.32;98319.47;4986421;28;20161;-73
2022/08/03 06:25:43;;;;;;;3.15;2.85;;;;;;;20.51;64.42;98325.16;4985025;28;20059;-72
2022/08/03 06:28:11;;;;;;;3.92;3.05;;;;;;;20.56;63.73;98328.03;4986338;28;20159;-74
2022/08/03 06:30:58;;;;;;;5.07;3.17;;;;;;;20.69;63.94;98329.78;4986645;28;20046;-74
2022/08/03 06:33:25;;;;;;;4.30;2.92;;;;;;;20.70;63.92;98320.69;4985932;28;20047;-73
2022/08/03 06:36:11;;;;;;;6.35;3.47;;;;;;;20.81;63.84;98328.81;4988237;28;20046;-73
2022/08/03 06:38:38;;;;;;;4.03;3.63;;;;;;;20.87;63.84;98324.41;4989564;28;20046;-73
2022/08/03 06:41:05;;;;;;;4.68;2.53;;;;;;;20.88;64.33;98325.22;5016750;28;20046;-73
2022/08/03 06:43:36;;;;;;;3.20;2.90;;;;;;;20.90;64.47;98329.34;4985350;28;21415;-73
2022/08/03 06:46:06;;;;;;;4.97;3.40;;;;;;;21.00;62.63;98328.81;4987940;28;20069;-74
2022/08/03 06:48:33;;;;;;;3.35;2.75;;;;;;;21.11;63.10;98324.56;4990780;28;20064;-73
2022/08/03 06:51:00;;;;;;;5.35;3.13;;;;;;;21.19;62.32;98326.94;5002900;28;20049;-74
2022/08/03 06:53:26;;;;;;;5.53;3.13;;;;;;;21.30;61.95;98326.22;4986294;28;20061;-74
2022/08/03 06:55:53;;;;;;;4.70;2.85;;;;;;;21.26;62.38;98330.41;4986742;28;20050;-74
2022/08/03 06:58:21;;;;;;;5.85;2.67;;;;;;;21.27;63.31;98329.34;4986709;28;20057;-75
2022/08/03 07:00:48;;;;;;;3.05;2.70;;;;;;;21.39;63.01;98332.13;4989115;28;20054;-73
2022/08/03 07:03:15;;;;;;;5.47;2.90;;;;;;;21.51;62.43;98333.00;4985779;28;20053;-73
2022/08/03 07:05:42;;;;;;;4.47;3.22;;;;;;;21.61;61.99;98335.16;4988798;28;20038;-73
2022/08/03 07:08:09;;;;;;;6.20;3.00;;;;;;;21.56;62.41;98337.69;4986910;28;20057;-72
2022/08/03 07:10:36;;;;;;;2.55;2.35;;;;;;;21.61;62.27;98335.16;4985517;28;20053;-74
2022/08/03 07:13:03;;;;;;;5.07;2.67;;;;;;;21.67;61.76;98334.25;5004574;28;20065;-74
2022/08/03 07:15:30;;;;;;;2.55;2.30;;;;;;;21.78;60.91;98325.38;4987409;28;20054;-73
2022/08/03 07:18:16;;;;;;;3.53;2.20;;;;;;;21.83;61.46;98324.72;4982570;28;20553;-73
2022/08/03 07:20:56;;;;;;;4.28;2.45;;;;;;;21.95;60.94;98333.63;4987687;28;20066;-74
2022/08/03 07:23:24;;;;;;;3.17;2.83;;;;;;;22.18;60.14;98324.78;4985894;28;20065;-73
2022/08/03 07:25:50;;;;;;;8.90;2.80;;;;;;;22.31;58.95;98318.38;4987465;28;20105;-73
2022/08/03 07:28:17;;;;;;;5.32;2.58;;;;;;;22.38;59.97;98324.50;4989127;28;20038;-73
2022/08/03 07:30:44;;;;;;;3.40;2.70;;;;;;;22.31;60.20;98323.78;4986761;28;20050;-75
2022/08/03 07:33:10;;;;;;;6.75;2.70;;;;;;;22.47;59.92;98335.75;4985011;28;20042;-74
2022/08/03 07:35:37;;;;;;;3.80;2.55;;;;;;;22.58;59.18;98329.53;4986292;28;20077;-73
2022/08/03 07:38:04;;;;;;;6.88;2.75;;;;;;;22.61;59.52;98328.25;4987126;28;20046;-73
2022/08/03 07:40:31;;;;;;;6.13;2.80;;;;;;;22.73;58.07;98323.69;4986441;28;20502;-73
2022/08/03 07:42:58;;;;;;;2.90;2.50;;;;;;;23.08;57.72;98325.53;4986123;28;20042;-73
2022/08/03 07:45:25;;;;;;;8.27;2.40;;;;;;;23.09;57.18;98329.88;4986237;28;20034;-74
2022/08/03 07:47:52;;;;;;;5.50;2.83;;;;;;;23.10;57.84;98334.22;4985294;28;20050;-73
2022/08/03 07:50:20;;;;;;;3.38;2.78;;;;;;;23.19;56.67;98327.38;4987429;28;20129;-73
2022/08/03 07:52:48;;;;;;;4.78;2.33;;;;;;;23.29;57.31;98333.00;4986613;28;20125;-75
2022/08/03 07:55:16;;;;;;;3.47;2.85;;;;;;;23.38;58.45;98331.56;4984250;28;20046;-74
2022/08/03 07:57:43;;;;;;;2.38;2.15;;;;;;;23.56;57.29;98327.84;4986819;28;20150;-74
2022/08/03 08:00:19;;;;;;;3.92;2.53;;;;;;;23.62;56.20;98320.69;4987428;28;20050;-74
2022/08/03 08:02:45;;;;;;;3.63;2.40;;;;;;;23.66;56.84;98321.81;4986949;28;20109;-72
2022/08/03 08:05:12;;;;;;;3.20;2.42;;;;;;;23.94;57.16;98322.91;4993383;28;20050;-71
2022/08/03 08:07:39;;;;;;;4.82;2.38;;;;;;;23.98;56.14;98315.94;5004293;28;20054;-73
2022/08/03 08:10:08;;;;;;;5.10;2.75;;;;;;;24.09;55.88;98317.75;4997611;28;20051;-73
2022/08/03 08:12:36;;;;;;;8.68;3.35;;;;;;;24.22;55.05;98311.19;4995595;28;20058;-74
2022/08/03 08:15:05;;;;;;;4.13;2.25;;;;;;;24.45;55.12;98321.88;4993201;28;20060;-74
2022/08/03 08:17:41;;;;;;;4.13;2.40;;;;;;;24.69;54.52;98302.75;4992066;28;20037;-73
2022/08/03 08:20:10;;;;;;;4.60;2.60;;;;;;;24.70;54.16;98307.94;4989399;28;20061;-74
2022/08/03 08:22:37;;;;;;;2.58;2.08;;;;;;;24.94;52.64;98310.41;4986627;28;20051;-73
2022/08/03 08:25:06;;;;;;;5.40;2.53;;;;;;;24.88;53.94;98312.25;4985536;28;20039;-73
2022/08/03 08:27:40;;;;;;;4.57;2.28;;;;;;;24.99;53.10;98315.91;4989026;28;20050;-73
2022/08/03 08:30:31;;;;;;;2.45;2.22;;;;;;;25.22;52.54;98308.63;4990515;28;20046;-73
2022/08/03 08:33:04;;;;;;;2.20;1.90;;;;;;;25.36;51.69;98305.28;4994343;28;20155;-73
2022/08/03 08:35:30;;;;;;;2.80;1.80;;;;;;;25.37;51.78;98303.38;4996698;28;20125;-73
2022/08/03 08:37:59;;;;;;;10.25;1.92;;;;;;;25.37;50.99;98304.19;4989870;28;20060;-73
2022/08/03 08:40:31;;;;;;;6.30;1.85;;;;;;;25.50;51.42;98310.31;4995253;28;20038;-72
2022/08/03 08:42:57;;;;;;;2.85;1.80;;;;;;;25.61;50.69;98306.63;4994797;28;20053;-73
2022/08/03 08:45:25;;;;;;;3.13;1.85;;;;;;;26.15;50.20;98306.63;4994065;28;20480;-73
2022/08/03 08:47:54;;;;;;;2.00;1.90;;;;;;;26.16;49.64;98308.25;4979325;28;20054;-73
2022/08/03 08:50:26;;;;;;;3.10;2.03;;;;;;;26.86;47.31;98305.53;4991997;28;20425;-73
2022/08/03 08:52:54;;;;;;;1.35;1.25;;;;;;;26.81;46.25;98297.34;5002744;28;20062;-73
2022/08/03 08:55:22;;;;;;;3.65;1.40;;;;;;;27.42;45.86;98310.41;4989383;28;20050;-73
2022/08/03 08:58:00;;;;;;;3.67;1.73;;;;;;;27.76;45.25;98303.41;4992854;28;20066;-73
2022/08/03 09:00:27;;;;;;;4.93;2.00;;;;;;;27.38;46.75;98301.94;4993086;28;20046;-72
2022/08/03 09:02:54;;;;;;;1.92;1.67;;;;;;;27.26;45.62;98304.91;4991382;28;20046;-73
2022/08/03 09:05:20;;;;;;;2.38;1.90;;;;;;;27.67;45.18;98306.94;4987722;28;20042;-72
2022/08/03 09:08:07;;;;;;;1.55;1.35;;;;;;;27.58;44.81;98302.03;4992754;28;20054;-73
2022/08/03 09:10:34;;;;;;;2.63;1.75;;;;;;;27.24;46.62;98300.84;4989862;28;20053;-73
2022/08/03 09:13:00;;;;;;;2.50;1.60;;;;;;;27.12;45.94;98298.28;4990659;28;20463;-73
2022/08/03 09:15:32;;;;;;;2.13;1.45;;;;;;;27.12;46.99;98299.13;4989163;28;20042;-73
2022/08/03 09:18:00;;;;;;;1.80;1.67;;;;;;;27.11;45.60;98292.06;4991879;28;20061;-73
2022/08/03 09:20:29;;;;;;;1.52;1.38;;;;;;;27.38;44.72;98298.44;4989271;28;20089;-73
2022/08/03 09:23:01;;;;;;;3.90;1.58;;;;;;;27.36;45.02;98293.28;4989127;28;20042;-73
2022/08/03 09:25:47;;;;;;;;;;;;;;;27.49;44.51;98294.66;4995248;28;20054;-74
2022/08/03 09:28:16;;;;;;;2.15;1.35;;;;;;;27.87;43.16;98289.88;5002120;28;19926;-73
2022/08/03 09:31:03;;;;;;;3.35;1.63;;;;;;;28.26;42.78;98292.06;4988435;28;20042;-73
2022/08/03 09:33:30;;;;;;;1.60;1.50;;;;;;;28.97;40.01;98283.78;4989303;28;20053;-73
2022/08/03 09:36:01;;;;;;;2.72;1.45;;;;;;;29.63;38.98;98282.66;4988381;28;20121;-74
2022/08/03 09:38:28;;;;;;;2.55;1.58;;;;;;;31.15;36.42;98280.78;4992424;28;20049;-73
2022/08/03 09:40:56;;;;;;;2.30;1.15;;;;;;;32.17;33.72;98284.81;4989368;28;20140;-72
2022/08/03 09:43:26;;;;;;;1.50;1.40;;;;;;;32.49;33.12;98285.94;5000858;28;20125;-72
2022/08/03 09:46:02;;;;;;;1.58;1.42;;;;;;;32.87;33.33;98281.09;4989394;28;20493;-72
2022/08/03 09:48:30;;;;;;;1.63;1.40;;;;;;;32.03;32.96;98278.50;4987827;28;20042;-72
2022/08/03 09:50:58;;;;;;;2.22;1.40;;;;;;;30.94;35.74;98280.19;4987292;28;20061;-72
2022/08/03 09:53:44;;;;;;;4.85;1.70;;;;;;;30.00;39.09;98275.09;4988998;28;20057;-72
2022/08/03 09:56:40;;;;;;;1.27;1.17;;;;;;;29.28;39.70;98270.88;4987841;28;20042;-72
2022/08/03 09:59:07;;;;;;;1.58;1.48;;;;;;;28.85;39.81;98265.00;4988064;28;20408;-72
2022/08/03 10:01:34;;;;;;;1.67;1.30;;;;;;;28.35;40.10;98269.47;4986031;28;20050;-72
2022/08/03 10:04:01;;;;;;;1.63;1.15;;;;;;;28.02;41.90;98273.56;4986126;28;20038;-72
2022/08/03 10:06:30;;;;;;;1.77;1.45;;;;;;;27.89;41.13;98274.13;4990263;28;20412;-73
2022/08/03 10:09:08;;;;;;;1.77;1.30;;;;;;;27.82;40.59;98268.94;4989063;28;20046;-72
2022/08/03 10:11:35;;;;;;;2.78;1.38;;;;;;;28.14;40.48;98259.69;4994362;28;20049;-72
2022/08/03 10:14:10;;;;;;;1.50;1.40;;;;;;;28.56;38.89;98261.31;4991263;28;20493;-72
2022/08/03 10:16:38;;;;;;;1.83;1.13;;;;;;;28.40;39.43;98260.47;4992945;28;20048;-72
2022/08/03 10:19:06;;;;;;;3.00;1.55;;;;;;;28.42;40.93;98259.13;4987755;28;20049;-72
2022/08/03 10:21:34;;;;;;;1.60;1.50;;;;;;;27.97;40.54;98249.09;4989279;28;20125;-72
2022/08/03 10:24:06;;;;;;;2.90;1.42;;;;;;;27.83;40.91;98253.44;4986495;28;20050;-73
2022/08/03 10:26:39;;;;;;;1.63;1.42;;;;;;;27.83;41.50;98254.25;4986906;28;20050;-72
2022/08/03 10:29:24;;;;;;;1.33;1.23;;;;;;;27.87;40.02;98252.63;5000151;28;20126;-72
2022/08/03 10:31:53;;;;;;;1.80;1.70;;;;;;;27.94;38.81;98244.22;4985573;28;20052;-71
2022/08/03 10:34:26;;;;;;;2.22;1.50;;;;;;;28.04;39.73;98246.91;4989457;28;20078;-72
2022/08/03 10:36:58;;;;;;;2.10;1.52;;;;;;;28.05;39.59;98245.03;4990845;28;20034;-72
2022/08/03 10:39:26;;;;;;;;;;;;;;;28.24;39.38;98249.63;4993971;28;20054;-72
2022/08/03 10:41:55;;;;;;;2.47;1.58;;;;;;;28.18;38.93;98239.03;5004504;28;19921;-72
2022/08/03 10:44:23;;;;;;;2.67;1.30;;;;;;;28.27;39.13;98237.38;4987132;28;20038;-72
2022/08/03 10:47:29;;;;;;;1.35;1.20;;;;;;;28.69;39.73;98230.78;4990925;28;20049;-83
2022/08/03 10:51:30;;;;;;;2.45;1.40;;;;;;;29.07;38.74;98236.66;4983853;28;20062;-83
2022/08/03 10:54:03;;;;;;;2.25;1.67;;;;;;;29.20;37.33;98229.75;4992324;28;20042;-81
2022/08/03 10:59:44;;;;;;;4.18;1.80;;;;;;;29.44;37.09;98217.09;4995488;28;20046;-82
2022/08/03 11:02:13;;;;;;;3.80;1.30;;;;;;;29.14;37.65;98212.63;4984926;28;20037;-81
2022/08/03 11:04:44;;;;;;;6.75;1.73;;;;;;;29.13;37.77;98223.81;5014814;28;20285;-82
2022/08/03 11:10:49;;;;;;;1.77;1.40;;;;;;;29.53;37.17;98217.31;5049237;28;20061;-84
2022/08/03 11:13:17;;;;;;;4.00;1.50;;;;;;;29.91;34.89;98206.69;5059302;28;20026;-82
2022/08/03 11:16:01;;;;;;;1.65;1.55;;;;;;;30.05;37.41;98210.38;5054078;28;20982;-88
2022/08/03 11:18:35;;;;;;;2.55;1.30;;;;;;;29.78;36.93;98207.34;5029719;28;20080;-83
2022/08/03 11:21:02;;;;;;;1.80;1.55;;;;;;;29.54;36.97;98205.28;5058774;28;20059;-81
2022/08/03 11:24:08;;;;;;;3.30;1.50;;;;;;;29.59;37.19;98202.53;5066449;28;20045;-83
2022/08/03 11:28:25;;;;;;;6.50;1.73;;;;;;;29.82;37.29;98202.94;4947773;28;20118;-84
2022/08/03 11:30:55;;;;;;;3.20;1.60;;;;;;;29.65;35.69;98193.28;4919775;29;20135;-82
2022/08/03 11:33:30;;;;;;;4.03;1.65;;;;;;;29.90;36.24;98196.88;4929285;28;20073;-82
2022/08/03 11:36:00;;;;;;;2.25;1.42;;;;;;;29.89;36.53;98190.63;4971900;28;20046;-82
2022/08/03 11:39:10;;;;;;;1.42;1.33;;;;;;;30.22;34.31;98199.03;4951656;28;20055;-85
2022/08/03 11:41:42;;;;;;;1.60;1.50;;;;;;;30.35;36.77;98200.28;4948144;28;20659;-84
2022/08/03 11:45:15;;;;;;;1.67;1.58;;;;;;;30.56;34.32;98198.16;4964337;28;20063;-86
2022/08/03 11:47:43;;;;;;;1.60;1.50;;;;;;;30.77;33.09;98185.88;4954326;28;20047;-85
2022/08/03 11:50:23;;;;;;;2.58;1.52;;;;;;;30.61;34.34;98189.91;4958141;28;20082;-82
2022/08/03 11:52:50;;;;;;;1.80;1.60;;;;;;;30.37;35.40;98192.63;4941148;28;20050;-83
2022/08/03 11:55:20;;;;;;;2.58;1.55;;;;;;;30.07;35.74;98186.38;4971265;28;20043;-82
2022/08/03 11:58:16;;;;;;;4.43;1.90;;;;;;;30.57;32.67;98178.75;4964665;28;20071;-87
2022/08/03 12:01:05;;;;;;;3.53;1.83;;;;;;;30.50;34.49;98180.22;4953657;28;20051;-83
2022/08/03 12:04:03;;;;;;;1.80;1.65;;;;;;;30.81;33.17;98177.97;4945805;28;20060;-85
2022/08/03 12:06:29;;;;;;;8.23;2.10;;;;;;;30.64;35.00;98172.94;5017978;28;20061;-81
2022/08/03 12:08:56;;;;;;;3.05;1.67;;;;;;;30.63;34.33;98174.84;5026760;28;20055;-80
2022/08/03 12:11:23;;;;;;;5.72;1.83;;;;;;;30.54;34.15;98173.84;5026309;28;20052;-84